WMT769 LIPZ-EPWA
Flight info
| Callsign | WMT769 |
|---|---|
| Flight time | N/A |
| Altitude | 35000 |
| Route | ROSKA M859 BARPI DCT LAPNA DCT GOLVA DCT LEDVA DCT NETIR DCT ORTEB DCT KONZI DCT LOGDA |
| Aircraft | A21N/M-SDE1E2E3FGIJ1J4RWXY/LB1 |
Departure
| Time | 2026-05-06 17:25 |
|---|---|
| Airport | Venice Marco Polo Airport (LIPZ) |
Arrival
| Time | N/A |
|---|---|
| Airport | Warsaw Chopin Airport (EPWA) |
| Time | Latitude | Longitude | Altitude | Speed | Heading |
|---|---|---|---|---|---|
| 2026-05-06 16:47 | 45.50113 | 12.33995 | 12 ft | 0 kts | 312° |
| 2026-05-06 16:47 | 45.50081 | 12.33957 | 11 ft | 0 kts | 312° |
| 2026-05-06 17:16 | 45.50079 | 12.33960 | 11 ft | 2 kts | 312° |
| 2026-05-06 17:16 | 45.50069 | 12.33976 | 12 ft | 2 kts | 312° |
| 2026-05-06 17:16 | 45.50059 | 12.33992 | 12 ft | 2 kts | 312° |
| 2026-05-06 17:16 | 45.50052 | 12.34002 | 12 ft | 1 kts | 312° |
| 2026-05-06 17:17 | 45.50045 | 12.34020 | 12 ft | 2 kts | 272° |
| 2026-05-06 17:17 | 45.50049 | 12.34041 | 12 ft | 2 kts | 233° |
| 2026-05-06 17:17 | 45.50053 | 12.34049 | 12 ft | 1 kts | 216° |
| 2026-05-06 17:17 | 45.50057 | 12.34052 | 12 ft | 0 kts | 221° |
| 2026-05-06 17:20 | 45.50034 | 12.34025 | 12 ft | 9 kts | 220° |
| 2026-05-06 17:20 | 45.49975 | 12.33954 | 11 ft | 12 kts | 224° |
| 2026-05-06 17:21 | 45.49896 | 12.33875 | 9 ft | 14 kts | 210° |
| 2026-05-06 17:21 | 45.49797 | 12.33821 | 9 ft | 15 kts | 190° |
| 2026-05-06 17:21 | 45.49697 | 12.33774 | 9 ft | 15 kts | 205° |
| 2026-05-06 17:21 | 45.49610 | 12.33682 | 9 ft | 9 kts | 222° |
| 2026-05-06 17:22 | 45.49571 | 12.33632 | 7 ft | 6 kts | 221° |
| 2026-05-06 17:22 | 45.49542 | 12.33609 | 7 ft | 3 kts | 192° |
| 2026-05-06 17:22 | 45.49533 | 12.33606 | 7 ft | 0 kts | 191° |
| 2026-05-06 17:22 | 45.49520 | 12.33606 | 7 ft | 4 kts | 171° |
| 2026-05-06 17:23 | 45.49504 | 12.33619 | 7 ft | 0 kts | 139° |
| 2026-05-06 17:23 | 45.49503 | 12.33620 | 7 ft | 0 kts | 137° |
| 2026-05-06 17:24 | 45.49497 | 12.33629 | 7 ft | 10 kts | 137° |
| 2026-05-06 17:24 | 45.49436 | 12.33777 | 9 ft | 8 kts | 36° |
| 2026-05-06 17:24 | 45.49571 | 12.33974 | 9 ft | 58 kts | 44° |
| 2026-05-06 17:25 | 45.50044 | 12.34584 | 9 ft | 122 kts | 41° |
| 2026-05-06 17:25 | 45.50806 | 12.35560 | 37 ft | 171 kts | 41° |
| 2026-05-06 17:25 | 45.51741 | 12.36723 | 487 ft | 182 kts | 43° |
| 2026-05-06 17:25 | 45.52652 | 12.37959 | 1137 ft | 186 kts | 46° |
| 2026-05-06 17:26 | 45.53478 | 12.39333 | 1879 ft | 183 kts | 63° |
| 2026-05-06 17:26 | 45.53710 | 12.41138 | 2328 ft | 195 kts | 96° |
| 2026-05-06 17:26 | 45.53500 | 12.43110 | 2812 ft | 208 kts | 101° |
| 2026-05-06 17:26 | 45.53243 | 12.45148 | 3492 ft | 211 kts | 101° |
| 2026-05-06 17:27 | 45.52998 | 12.47204 | 4181 ft | 213 kts | 100° |
| 2026-05-06 17:27 | 45.52764 | 12.49313 | 4847 ft | 217 kts | 99° |
| 2026-05-06 17:27 | 45.52599 | 12.51476 | 5371 ft | 227 kts | 95° |
| 2026-05-06 17:27 | 45.52488 | 12.53837 | 5686 ft | 250 kts | 94° |
| 2026-05-06 17:28 | 45.52377 | 12.56404 | 6092 ft | 269 kts | 94° |
| 2026-05-06 17:28 | 45.52255 | 12.59134 | 6685 ft | 281 kts | 94° |
| 2026-05-06 17:28 | 45.52126 | 12.61927 | 7491 ft | 283 kts | 94° |
| 2026-05-06 17:28 | 45.51994 | 12.64687 | 8264 ft | 286 kts | 94° |
| 2026-05-06 17:29 | 45.51873 | 12.67184 | 8925 ft | 289 kts | 95° |
| 2026-05-06 17:29 | 45.51732 | 12.70078 | 9664 ft | 292 kts | 95° |
| 2026-05-06 17:29 | 45.51589 | 12.72961 | 10334 ft | 297 kts | 95° |
| 2026-05-06 17:29 | 45.51438 | 12.75975 | 10696 ft | 314 kts | 95° |
| 2026-05-06 17:30 | 45.51277 | 12.79153 | 11176 ft | 324 kts | 95° |
| 2026-05-06 17:30 | 45.51114 | 12.82364 | 11864 ft | 327 kts | 95° |
| 2026-05-06 17:30 | 45.50949 | 12.85581 | 12539 ft | 330 kts | 94° |
| 2026-05-06 17:30 | 45.50783 | 12.88854 | 13151 ft | 335 kts | 94° |
| 2026-05-06 17:31 | 45.50612 | 12.92220 | 13749 ft | 340 kts | 94° |
| 2026-05-06 17:31 | 45.50440 | 12.95583 | 14328 ft | 344 kts | 94° |
| 2026-05-06 17:31 | 45.50263 | 12.98984 | 14895 ft | 349 kts | 94° |
| 2026-05-06 17:31 | 45.50080 | 13.02452 | 15449 ft | 354 kts | 94° |
| 2026-05-06 17:32 | 45.49892 | 13.05991 | 15995 ft | 358 kts | 94° |
| 2026-05-06 17:32 | 45.49703 | 13.09548 | 16527 ft | 363 kts | 93° |
| 2026-05-06 17:32 | 45.49511 | 13.13138 | 17051 ft | 367 kts | 93° |
| 2026-05-06 17:32 | 45.49314 | 13.16783 | 17570 ft | 371 kts | 92° |
| 2026-05-06 17:33 | 45.49113 | 13.20478 | 18086 ft | 375 kts | 92° |
| 2026-05-06 17:33 | 45.48923 | 13.24160 | 18612 ft | 377 kts | 89° |
| 2026-05-06 17:33 | 45.49119 | 13.27800 | 19184 ft | 372 kts | 73° |
| 2026-05-06 17:33 | 45.49981 | 13.31273 | 19698 ft | 366 kts | 57° |
| 2026-05-06 17:34 | 45.51225 | 13.34403 | 20188 ft | 367 kts | 53° |
| 2026-05-06 17:34 | 45.52565 | 13.37534 | 20665 ft | 370 kts | 53° |
| 2026-05-06 17:34 | 45.53899 | 13.40683 | 21142 ft | 373 kts | 53° |
| 2026-05-06 17:34 | 45.55206 | 13.43849 | 21611 ft | 376 kts | 53° |
| 2026-05-06 17:35 | 45.56515 | 13.47094 | 22075 ft | 378 kts | 53° |
| 2026-05-06 17:35 | 45.57811 | 13.50328 | 22525 ft | 380 kts | 53° |
| 2026-05-06 17:35 | 45.59205 | 13.53524 | 22969 ft | 380 kts | 49° |
| 2026-05-06 17:36 | 45.62228 | 13.59723 | 23843 ft | 382 kts | 47° |
| 2026-05-06 17:36 | 45.63771 | 13.62848 | 24274 ft | 384 kts | 47° |
| 2026-05-06 17:36 | 45.65305 | 13.65963 | 24691 ft | 386 kts | 47° |
| 2026-05-06 17:36 | 45.66854 | 13.69129 | 25083 ft | 388 kts | 47° |
| 2026-05-06 17:37 | 45.68384 | 13.72265 | 25468 ft | 390 kts | 47° |
| 2026-05-06 17:37 | 45.69943 | 13.75463 | 25855 ft | 392 kts | 47° |
| 2026-05-06 17:37 | 45.71495 | 13.78647 | 26231 ft | 393 kts | 46° |
| 2026-05-06 17:37 | 45.73063 | 13.81865 | 26604 ft | 395 kts | 46° |
| 2026-05-06 17:38 | 45.74635 | 13.85094 | 26965 ft | 396 kts | 46° |
| 2026-05-06 17:38 | 45.76211 | 13.88332 | 27319 ft | 398 kts | 46° |
| 2026-05-06 17:38 | 45.77789 | 13.91580 | 27670 ft | 399 kts | 46° |
| 2026-05-06 17:38 | 45.79372 | 13.94840 | 28017 ft | 401 kts | 46° |
| 2026-05-06 17:39 | 45.80967 | 13.98128 | 28363 ft | 402 kts | 45° |
| 2026-05-06 17:39 | 45.82567 | 14.01431 | 28703 ft | 403 kts | 45° |
| 2026-05-06 17:39 | 45.84154 | 14.04711 | 29036 ft | 404 kts | 45° |
| 2026-05-06 17:39 | 45.85755 | 14.08022 | 29365 ft | 406 kts | 45° |
| 2026-05-06 17:40 | 45.87365 | 14.11358 | 29694 ft | 407 kts | 45° |
| 2026-05-06 17:40 | 45.88985 | 14.14718 | 30021 ft | 408 kts | 45° |
| 2026-05-06 17:40 | 45.90589 | 14.18048 | 30334 ft | 409 kts | 45° |
| 2026-05-06 17:40 | 45.92204 | 14.21405 | 30636 ft | 410 kts | 45° |
| 2026-05-06 17:41 | 45.93830 | 14.24780 | 30939 ft | 411 kts | 44° |
| 2026-05-06 17:41 | 45.95449 | 14.28149 | 31242 ft | 412 kts | 44° |
| 2026-05-06 17:41 | 45.97078 | 14.31543 | 31538 ft | 413 kts | 44° |
| 2026-05-06 17:41 | 45.98718 | 14.34965 | 31824 ft | 414 kts | 44° |
| 2026-05-06 17:42 | 46.00337 | 14.38349 | 32100 ft | 415 kts | 44° |
| 2026-05-06 17:42 | 46.01981 | 14.41789 | 32379 ft | 416 kts | 44° |
| 2026-05-06 17:42 | 46.03615 | 14.45213 | 32643 ft | 417 kts | 44° |
| 2026-05-06 17:42 | 46.05239 | 14.48622 | 32901 ft | 418 kts | 44° |
| 2026-05-06 17:43 | 46.06894 | 14.52099 | 33158 ft | 419 kts | 44° |
| 2026-05-06 17:43 | 46.08540 | 14.55561 | 33405 ft | 420 kts | 44° |
| 2026-05-06 17:43 | 46.10183 | 14.59022 | 33644 ft | 421 kts | 44° |
| 2026-05-06 17:43 | 46.11842 | 14.62502 | 33919 ft | 421 kts | 43° |
| 2026-05-06 17:44 | 46.13488 | 14.65957 | 34178 ft | 422 kts | 44° |
| 2026-05-06 17:44 | 46.15134 | 14.69431 | 34383 ft | 424 kts | 44° |
| 2026-05-06 17:44 | 46.16807 | 14.72978 | 34646 ft | 425 kts | 44° |
| 2026-05-06 17:44 | 46.18470 | 14.76515 | 34944 ft | 424 kts | 44° |
| 2026-05-06 17:45 | 46.20108 | 14.80000 | 35245 ft | 423 kts | 44° |
| 2026-05-06 17:45 | 46.21756 | 14.83507 | 35529 ft | 422 kts | 44° |
| 2026-05-06 17:45 | 46.23393 | 14.86992 | 35790 ft | 421 kts | 44° |
| 2026-05-06 17:45 | 46.25039 | 14.90499 | 36043 ft | 421 kts | 44° |
| 2026-05-06 17:46 | 46.26672 | 14.93986 | 36307 ft | 420 kts | 44° |
| 2026-05-06 17:46 | 46.28305 | 14.97478 | 36556 ft | 419 kts | 44° |
| 2026-05-06 17:46 | 46.29921 | 15.00934 | 36784 ft | 418 kts | 44° |
| 2026-05-06 17:46 | 46.31562 | 15.04447 | 36885 ft | 419 kts | 44° |
| 2026-05-06 17:47 | 46.34787 | 15.11372 | 36894 ft | 415 kts | 44° |
| 2026-05-06 17:47 | 46.38004 | 15.18295 | 36889 ft | 413 kts | 43° |
| 2026-05-06 17:48 | 46.41177 | 15.25135 | 36884 ft | 413 kts | 43° |
| 2026-05-06 17:48 | 46.44370 | 15.32038 | 36879 ft | 413 kts | 43° |
| 2026-05-06 17:49 | 46.47564 | 15.38967 | 36877 ft | 413 kts | 43° |
| 2026-05-06 17:49 | 46.50947 | 15.45549 | 36875 ft | 402 kts | 37° |
| 2026-05-06 17:50 | 46.54813 | 15.51197 | 36875 ft | 391 kts | 29° |
| 2026-05-06 17:50 | 46.59088 | 15.55901 | 36875 ft | 381 kts | 22° |
| 2026-05-06 17:51 | 46.63639 | 15.59686 | 36875 ft | 375 kts | 18° |
| 2026-05-06 17:51 | 46.68228 | 15.63178 | 36873 ft | 374 kts | 17° |
| 2026-05-06 17:52 | 46.72929 | 15.66263 | 36873 ft | 369 kts | 13° |
| 2026-05-06 17:52 | 46.77711 | 15.68919 | 36775 ft | 365 kts | 12° |
| 2026-05-06 17:53 | 46.80038 | 15.70192 | 36327 ft | 363 kts | 12° |
| 2026-05-06 17:53 | 46.82413 | 15.71485 | 35588 ft | 365 kts | 12° |
| 2026-05-06 17:53 | 46.84780 | 15.72770 | 35097 ft | 367 kts | 12° |
| 2026-05-06 17:53 | 46.87187 | 15.74078 | 34875 ft | 369 kts | 12° |
| 2026-05-06 17:54 | 46.91984 | 15.76695 | 34856 ft | 371 kts | 12° |
| 2026-05-06 17:54 | 46.96840 | 15.79350 | 34850 ft | 372 kts | 11° |
| 2026-05-06 17:55 | 47.01670 | 15.81992 | 34848 ft | 373 kts | 11° |
| 2026-05-06 17:55 | 47.06512 | 15.84639 | 34848 ft | 374 kts | 10° |
| 2026-05-06 17:56 | 47.11385 | 15.87304 | 34853 ft | 374 kts | 10° |
| 2026-05-06 17:56 | 47.16271 | 15.89977 | 34855 ft | 374 kts | 10° |
| 2026-05-06 17:57 | 47.21123 | 15.92642 | 34867 ft | 374 kts | 10° |
| 2026-05-06 17:57 | 47.26008 | 15.95331 | 35243 ft | 375 kts | 10° |
| 2026-05-06 17:58 | 47.28449 | 15.96681 | 35562 ft | 373 kts | 10° |
| 2026-05-06 17:58 | 47.30862 | 15.98019 | 35840 ft | 372 kts | 10° |
| 2026-05-06 17:58 | 47.33293 | 15.99365 | 36065 ft | 372 kts | 10° |
| 2026-05-06 17:58 | 47.35708 | 16.00701 | 36283 ft | 372 kts | 10° |
| 2026-05-06 17:59 | 47.38100 | 16.02027 | 36497 ft | 372 kts | 10° |
| 2026-05-06 17:59 | 47.40549 | 16.03385 | 36704 ft | 372 kts | 10° |
| 2026-05-06 17:59 | 47.42955 | 16.04721 | 36893 ft | 372 kts | 10° |
| 2026-05-06 17:59 | 47.45349 | 16.06050 | 36950 ft | 373 kts | 10° |
| 2026-05-06 18:00 | 47.50211 | 16.08757 | 36972 ft | 372 kts | 10° |
| 2026-05-06 18:00 | 47.55023 | 16.11442 | 36984 ft | 372 kts | 10° |
| 2026-05-06 18:01 | 47.59854 | 16.14142 | 36989 ft | 372 kts | 10° |
| 2026-05-06 18:01 | 47.64681 | 16.16845 | 36990 ft | 372 kts | 10° |
| 2026-05-06 18:02 | 47.69501 | 16.19549 | 36991 ft | 372 kts | 10° |
| 2026-05-06 18:02 | 47.74337 | 16.22267 | 36991 ft | 372 kts | 10° |
| 2026-05-06 18:03 | 47.79157 | 16.24982 | 36991 ft | 372 kts | 10° |
| 2026-05-06 18:03 | 47.83987 | 16.27709 | 36991 ft | 372 kts | 10° |
| 2026-05-06 18:04 | 47.88804 | 16.30433 | 36991 ft | 372 kts | 10° |
| 2026-05-06 18:04 | 47.93629 | 16.33168 | 36991 ft | 372 kts | 10° |
| 2026-05-06 18:05 | 47.98474 | 16.35919 | 36981 ft | 372 kts | 10° |
| 2026-05-06 18:05 | 48.03304 | 16.38667 | 36960 ft | 372 kts | 10° |
| 2026-05-06 18:06 | 48.08113 | 16.41410 | 36935 ft | 372 kts | 10° |
| 2026-05-06 18:06 | 48.12923 | 16.44154 | 36910 ft | 372 kts | 10° |
| 2026-05-06 18:07 | 48.17736 | 16.46904 | 36879 ft | 372 kts | 10° |
| 2026-05-06 18:07 | 48.22583 | 16.49682 | 36842 ft | 372 kts | 10° |
| 2026-05-06 18:08 | 48.27383 | 16.52441 | 36802 ft | 372 kts | 10° |
| 2026-05-06 18:08 | 48.32190 | 16.55210 | 36770 ft | 372 kts | 10° |
| 2026-05-06 18:09 | 48.37020 | 16.57999 | 36750 ft | 372 kts | 10° |